createdAt,value
2018-01-25T00:00:02.482Z,9.4
2018-01-25T00:05:02.614Z,9.4
2018-01-25T00:10:04.978Z,9.4
2018-01-25T00:15:07.719Z,9.4
2018-01-25T00:20:08.095Z,9.3
2018-01-25T00:25:15.937Z,9.3
2018-01-25T00:30:10.747Z,9.3
2018-01-25T00:35:04.966Z,9.3
2018-01-25T00:40:02.749Z,9.3
2018-01-25T00:45:02.980Z,9.4
2018-01-25T00:50:03.257Z,9.4
2018-01-25T00:55:07.457Z,9.5
2018-01-25T01:00:25.599Z,9.6
2018-01-25T01:05:02.876Z,9.6
2018-01-25T01:10:10.198Z,9.5
2018-01-25T01:15:05.304Z,9.5
2018-01-25T01:20:05.197Z,9.5
2018-01-25T01:25:02.867Z,9.5
2018-01-25T01:30:03.124Z,9.5
2018-01-25T01:35:05.796Z,9.4
2018-01-25T01:40:07.713Z,9.4
2018-01-25T01:45:07.804Z,9.5
2018-01-25T01:50:03.070Z,9.5
2018-01-25T01:55:03.305Z,9.6
2018-01-25T02:00:02.618Z,9.7
2018-01-25T02:05:02.797Z,9.8
2018-01-25T02:10:05.062Z,9.9
2018-01-25T02:15:02.748Z,9.9
2018-01-25T02:20:03.128Z,9.9
2018-01-25T02:25:03.256Z,10
2018-01-25T02:30:05.128Z,10.2
2018-01-25T02:35:02.737Z,10.2
2018-01-25T02:40:02.488Z,10.3
2018-01-25T02:45:05.385Z,10.4
2018-01-25T02:50:02.682Z,10.3
2018-01-25T02:55:05.438Z,10.4
2018-01-25T03:00:05.223Z,10.4
2018-01-25T03:05:05.519Z,10.3
2018-01-25T03:10:05.815Z,10.3
2018-01-25T03:15:07.547Z,10.3
2018-01-25T03:20:02.813Z,10.3
2018-01-25T03:25:03.096Z,10.4
2018-01-25T03:30:02.377Z,10.4
2018-01-25T03:35:05.205Z,10.3
2018-01-25T03:40:07.973Z,10.3
2018-01-25T03:45:03.258Z,10.3
2018-01-25T03:50:05.055Z,10.3
2018-01-25T03:55:07.843Z,10.3
2018-01-25T04:00:18.270Z,10.3
2018-01-25T04:05:03.334Z,10.3
2018-01-25T04:10:05.586Z,10.3
2018-01-25T04:15:04.885Z,10.3
2018-01-25T04:20:05.769Z,10.4
2018-01-25T04:25:10.024Z,10.5
2018-01-25T04:30:03.314Z,10.5
2018-01-25T04:35:02.446Z,10.5
2018-01-25T04:40:15.820Z,10.5
2018-01-25T04:45:07.624Z,10.5
2018-01-25T04:50:02.851Z,10.5
2018-01-25T04:55:03.074Z,10.5
2018-01-25T05:00:03.336Z,10.4
2018-01-25T05:05:05.152Z,10.5
2018-01-25T05:10:05.342Z,10.5
2018-01-25T05:15:03.062Z,10.5
2018-01-25T05:20:02.436Z,10.5
2018-01-25T05:25:05.278Z,10.4
2018-01-25T05:30:02.570Z,10.4
2018-01-25T05:35:25.492Z,10.5
2018-01-25T05:40:05.771Z,10.5
2018-01-25T05:45:02.517Z,10.5
2018-01-25T05:50:02.711Z,10.5
2018-01-25T05:55:05.469Z,10.6
2018-01-25T06:00:05.310Z,10.6
2018-01-25T06:05:08.088Z,10.6
2018-01-25T06:10:02.767Z,10.6
2018-01-25T06:15:15.661Z,10.6
2018-01-25T06:20:08.106Z,10.7
2018-01-25T06:25:10.835Z,10.7
2018-01-25T06:30:25.974Z,10.7
2018-01-25T06:35:05.771Z,10.7
2018-01-25T06:40:15.228Z,10.7
2018-01-25T06:45:05.357Z,10.7
2018-01-25T06:50:02.639Z,10.7
2018-01-25T06:55:02.816Z,10.8
2018-01-25T07:00:08.262Z,10.8
2018-01-25T07:05:02.420Z,10.8
2018-01-25T07:10:05.655Z,10.8
2018-01-25T07:15:02.342Z,10.8
2018-01-25T07:20:02.667Z,10.9
2018-01-25T07:25:03.007Z,10.9
2018-01-25T07:30:03.329Z,11
2018-01-25T07:35:02.629Z,11
2018-01-25T07:40:02.411Z,11.1
2018-01-25T07:45:10.224Z,10.9
2018-01-25T07:50:05.076Z,10.7
2018-01-25T07:55:05.305Z,10.4
2018-01-25T08:00:07.627Z,10.3
2018-01-25T08:05:05.334Z,10.2
2018-01-25T08:10:02.980Z,10.2
2018-01-25T08:15:10.772Z,10.1
2018-01-25T08:20:05.751Z,10.1
2018-01-25T08:25:15.898Z,10.1
2018-01-25T08:30:03.213Z,10.1
2018-01-25T08:35:07.466Z,10
2018-01-25T08:40:03.174Z,10
2018-01-25T08:45:02.358Z,10
2018-01-25T08:50:07.697Z,9.9
2018-01-25T08:55:05.375Z,9.9
2018-01-25T09:00:05.166Z,9.9
2018-01-25T09:05:02.950Z,9.8
2018-01-25T09:10:07.814Z,9.8
2018-01-25T09:15:10.569Z,9.9
2018-01-25T09:20:02.899Z,9.9
2018-01-25T09:25:08.280Z,9.9
2018-01-25T09:30:02.603Z,9.9
2018-01-25T09:35:05.487Z,9.8
2018-01-25T09:40:05.756Z,9.8
2018-01-25T09:45:02.438Z,9.8
2018-01-25T09:50:05.245Z,9.9
2018-01-25T09:55:05.537Z,9.9
2018-01-25T10:00:05.277Z,9.9
2018-01-25T10:05:02.998Z,9.8
2018-01-25T10:10:05.269Z,9.8
2018-01-25T10:15:08.206Z,9.9
2018-01-25T10:20:02.488Z,9.9
2018-01-25T10:25:02.792Z,9.9
2018-01-25T10:30:10.635Z,10
2018-01-25T10:35:03.290Z,10
2018-01-25T10:40:08.053Z,10
2018-01-25T10:45:03.350Z,10
2018-01-25T10:50:20.381Z,3.7
2018-01-25T10:55:05.446Z,10.1
2018-01-25T11:00:02.775Z,10.2
2018-01-25T11:05:03.048Z,10.1
2018-01-25T11:10:02.770Z,10.1
2018-01-25T11:15:05.676Z,10
2018-01-25T11:20:02.980Z,10
2018-01-25T11:25:03.227Z,10
2018-01-25T11:30:02.549Z,10
2018-01-25T11:35:18.020Z,10.1
2018-01-25T11:40:05.218Z,10.1
2018-01-25T11:45:08.058Z,10.1
2018-01-25T11:50:05.856Z,10.1
2018-01-25T11:55:05.035Z,10.1
2018-01-25T12:00:07.711Z,10.1
2018-01-25T12:05:02.729Z,10.1
2018-01-25T12:10:04.928Z,10.2
2018-01-25T12:15:02.740Z,10.2
2018-01-25T12:20:03.207Z,10.2
2018-01-25T12:25:04.938Z,10.2
2018-01-25T12:30:08.266Z,10.2
2018-01-25T12:35:02.487Z,10.1
2018-01-25T12:40:03.217Z,10.2
2018-01-25T12:45:04.961Z,10.1
2018-01-25T12:50:03.289Z,10.1
2018-01-25T12:55:20.140Z,10.1
2018-01-25T13:00:07.442Z,10.1
2018-01-25T13:05:02.632Z,10.1
2018-01-25T13:10:03.351Z,10.2
2018-01-25T13:15:02.560Z,10.3
2018-01-25T13:20:05.469Z,10.3
2018-01-25T13:25:03.160Z,10.3
2018-01-25T13:30:09.982Z,10.3
2018-01-25T13:35:02.730Z,10.4
2018-01-25T13:40:02.418Z,10.3
2018-01-25T13:45:02.731Z,10.3
2018-01-25T13:50:08.065Z,10.2
2018-01-25T13:55:05.696Z,10.2
2018-01-25T14:00:02.993Z,10.2
2018-01-25T14:05:03.158Z,10.2
2018-01-25T14:10:05.472Z,10
2018-01-25T14:15:03.141Z,10
2018-01-25T14:20:05.047Z,10
2018-01-25T14:25:13.012Z,10
2018-01-25T14:30:13.462Z,9.9
2018-01-25T14:35:22.735Z,9.9
2018-01-25T14:40:02.554Z,9.9
2018-01-25T14:45:05.229Z,9.8
2018-01-25T14:50:02.455Z,9.8
2018-01-25T14:55:05.277Z,9.8
2018-01-25T15:00:05.059Z,9.7
2018-01-25T15:05:05.285Z,9.7
2018-01-25T15:10:13.227Z,9.7
2018-01-25T15:15:05.726Z,9.6
2018-01-25T15:20:05.618Z,9.6
2018-01-25T15:25:05.879Z,9.5
2018-01-25T15:30:05.656Z,9.4
2018-01-25T15:35:08.375Z,9.3
2018-01-25T15:40:05.604Z,9.3
2018-01-25T15:45:03.329Z,9.3
2018-01-25T15:50:07.700Z,9.2
2018-01-25T15:55:02.845Z,9.2
2018-01-25T16:00:05.676Z,9.2
2018-01-25T16:05:20.079Z,9.1
2018-01-25T16:10:05.300Z,9.1
2018-01-25T16:15:05.585Z,9
2018-01-25T16:20:07.943Z,8.9
2018-01-25T16:25:08.185Z,8.9
2018-01-25T16:30:02.495Z,8.9
2018-01-25T16:35:02.589Z,8.9
2018-01-25T16:40:08.434Z,8.8
2018-01-25T16:45:05.158Z,8.8
2018-01-25T16:50:04.957Z,8.8
2018-01-25T16:55:02.691Z,8.8
2018-01-25T17:00:10.552Z,8.8
2018-01-25T17:05:05.776Z,8.8
2018-01-25T17:10:12.789Z,8.9
2018-01-25T17:15:02.888Z,8.9
2018-01-25T17:20:08.325Z,8.9
2018-01-25T17:25:05.039Z,8.9
2018-01-25T17:30:21.162Z,8.8
2018-01-25T17:35:05.205Z,9
2018-01-25T17:40:05.463Z,9
2018-01-25T17:45:03.080Z,9
2018-01-25T17:50:02.432Z,9
2018-01-25T17:55:02.600Z,9
2018-01-25T18:00:02.884Z,9
2018-01-25T18:05:05.688Z,9
2018-01-25T18:10:03.408Z,9
2018-01-25T18:15:02.556Z,9
2018-01-25T18:20:02.891Z,9
2018-01-25T18:25:03.144Z,9
2018-01-25T18:30:05.915Z,9
2018-01-25T18:35:17.816Z,8.9
2018-01-25T18:40:02.623Z,8.9
2018-01-25T18:45:02.775Z,8.9
2018-01-25T18:50:05.526Z,8.9
2018-01-25T18:55:03.255Z,8.9
2018-01-25T19:00:05.026Z,8.9
2018-01-25T19:05:02.707Z,8.9
2018-01-25T19:10:10.170Z,8.9
2018-01-25T19:15:17.904Z,8.9
2018-01-25T19:20:03.225Z,8.9
2018-01-25T19:25:07.537Z,8.9
2018-01-25T19:30:02.777Z,8.9
2018-01-25T19:35:02.975Z,8.9
2018-01-25T19:40:02.869Z,8.9
2018-01-25T19:45:05.516Z,8.9
2018-01-25T19:50:02.748Z,8.9
2018-01-25T19:55:02.998Z,8.9
2018-01-25T20:00:03.278Z,8.9
2018-01-25T20:05:02.557Z,8.8
2018-01-25T20:10:15.892Z,8.8
2018-01-25T20:15:04.988Z,8.8
2018-01-25T20:20:03.308Z,8.8
2018-01-25T20:25:07.567Z,8.8
2018-01-25T20:30:07.890Z,8.8
2018-01-25T20:35:08.164Z,8.7
2018-01-25T20:40:05.384Z,8.8
2018-01-25T20:45:05.616Z,8.7
2018-01-25T20:50:05.515Z,8.7
2018-01-25T20:55:05.635Z,8.7
2018-01-25T21:00:08.175Z,8.7
2018-01-25T21:05:10.894Z,8.7
2018-01-25T21:10:02.589Z,8.7
2018-01-25T21:15:05.376Z,8.7
2018-01-25T21:20:02.679Z,8.7
2018-01-25T21:25:02.889Z,8.6
2018-01-25T21:30:05.755Z,8.6
2018-01-25T21:35:04.865Z,8.6
2018-01-25T21:40:07.664Z,8.5
2018-01-25T21:45:05.342Z,8.5
2018-01-25T21:50:05.120Z,8.5
2018-01-25T21:55:02.757Z,8.5
2018-01-25T22:00:05.524Z,8.5
2018-01-25T22:05:05.845Z,8.5
2018-01-25T22:10:05.096Z,8.4
2018-01-25T22:15:02.900Z,8.4
2018-01-25T22:20:03.317Z,8.4
2018-01-25T22:25:07.506Z,8.4
2018-01-25T22:30:07.797Z,8.4
2018-01-25T22:35:07.995Z,8.4
2018-01-25T22:40:05.327Z,8.4
2018-01-25T22:45:08.045Z,8.4
2018-01-25T22:50:28.622Z,8.3
2018-01-25T22:55:05.335Z,8.3
2018-01-25T23:00:07.615Z,8.3
2018-01-25T23:05:02.758Z,8.3
2018-01-25T23:10:07.515Z,8.3
2018-01-25T23:15:02.668Z,8.3
2018-01-25T23:20:08.115Z,8.2
2018-01-25T23:25:03.330Z,8.2
2018-01-25T23:30:02.588Z,8.2
2018-01-25T23:35:02.839Z,8.2
2018-01-25T23:40:02.588Z,8.2
2018-01-25T23:45:02.835Z,8.2
2018-01-25T23:50:03.058Z,8.2
2018-01-25T23:55:05.805Z,8.2
